sensor_id;sensor_type;location;lat;lon;timestamp;P1;durP1;ratioP1;P2;durP2;ratioP2
46222;SDS011;31943;51.410;7.564;2022-12-13T00:01:08;20.88;;;11.55;;
46222;SDS011;31943;51.410;7.564;2022-12-13T00:03:35;18.85;;;11.30;;
46222;SDS011;31943;51.410;7.564;2022-12-13T00:06:03;18.80;;;11.20;;
46222;SDS011;31943;51.410;7.564;2022-12-13T00:08:32;14.82;;;10.35;;
46222;SDS011;31943;51.410;7.564;2022-12-13T00:10:59;16.83;;;10.77;;
46222;SDS011;31943;51.410;7.564;2022-12-13T00:13:25;17.98;;;11.07;;
46222;SDS011;31943;51.410;7.564;2022-12-13T00:15:54;18.42;;;11.55;;
46222;SDS011;31943;51.410;7.564;2022-12-13T00:18:20;16.38;;;10.57;;
46222;SDS011;31943;51.410;7.564;2022-12-13T00:20:46;17.98;;;11.30;;
46222;SDS011;31943;51.410;7.564;2022-12-13T00:23:11;23.50;;;11.02;;
46222;SDS011;31943;51.410;7.564;2022-12-13T00:25:37;17.83;;;10.63;;
46222;SDS011;31943;51.410;7.564;2022-12-13T00:28:05;16.27;;;10.43;;
46222;SDS011;31943;51.410;7.564;2022-12-13T00:30:32;18.15;;;10.90;;
46222;SDS011;31943;51.410;7.564;2022-12-13T00:32:57;17.45;;;10.88;;
46222;SDS011;31943;51.410;7.564;2022-12-13T00:35:23;16.10;;;10.70;;
46222;SDS011;31943;51.410;7.564;2022-12-13T00:37:48;16.95;;;10.52;;
46222;SDS011;31943;51.410;7.564;2022-12-13T00:40:14;16.67;;;11.50;;
46222;SDS011;31943;51.410;7.564;2022-12-13T00:42:40;19.02;;;11.75;;
46222;SDS011;31943;51.410;7.564;2022-12-13T00:45:08;18.00;;;11.15;;
46222;SDS011;31943;51.410;7.564;2022-12-13T00:47:34;19.05;;;10.90;;
46222;SDS011;31943;51.410;7.564;2022-12-13T00:49:59;19.70;;;10.73;;
46222;SDS011;31943;51.410;7.564;2022-12-13T00:52:25;17.65;;;11.20;;
46222;SDS011;31943;51.410;7.564;2022-12-13T00:54:50;18.17;;;10.82;;
46222;SDS011;31943;51.410;7.564;2022-12-13T00:57:16;18.50;;;11.45;;
46222;SDS011;31943;51.410;7.564;2022-12-13T00:59:42;17.95;;;11.05;;
46222;SDS011;31943;51.410;7.564;2022-12-13T01:02:09;20.00;;;11.68;;
46222;SDS011;31943;51.410;7.564;2022-12-13T01:04:34;19.25;;;11.23;;
46222;SDS011;31943;51.410;7.564;2022-12-13T01:07:00;16.95;;;10.63;;
46222;SDS011;31943;51.410;7.564;2022-12-13T01:09:26;19.55;;;11.88;;
46222;SDS011;31943;51.410;7.564;2022-12-13T01:11:55;17.60;;;10.73;;
46222;SDS011;31943;51.410;7.564;2022-12-13T01:14:21;17.48;;;10.70;;
46222;SDS011;31943;51.410;7.564;2022-12-13T01:16:47;14.95;;;10.73;;
46222;SDS011;31943;51.410;7.564;2022-12-13T01:19:14;18.83;;;11.50;;
46222;SDS011;31943;51.410;7.564;2022-12-13T01:21:40;16.25;;;10.68;;
46222;SDS011;31943;51.410;7.564;2022-12-13T01:24:06;20.10;;;12.05;;
46222;SDS011;31943;51.410;7.564;2022-12-13T01:26:32;19.10;;;11.70;;
46222;SDS011;31943;51.410;7.564;2022-12-13T01:28:58;18.17;;;11.10;;
46222;SDS011;31943;51.410;7.564;2022-12-13T01:31:23;20.00;;;12.15;;
46222;SDS011;31943;51.410;7.564;2022-12-13T01:33:49;17.73;;;10.73;;
46222;SDS011;31943;51.410;7.564;2022-12-13T01:36:16;19.60;;;10.95;;
46222;SDS011;31943;51.410;7.564;2022-12-13T01:38:44;18.90;;;11.48;;
46222;SDS011;31943;51.410;7.564;2022-12-13T01:41:09;16.27;;;10.73;;
46222;SDS011;31943;51.410;7.564;2022-12-13T01:43:50;18.88;;;11.35;;
46222;SDS011;31943;51.410;7.564;2022-12-13T01:46:19;20.65;;;12.02;;
46222;SDS011;31943;51.410;7.564;2022-12-13T01:48:45;20.33;;;11.88;;
46222;SDS011;31943;51.410;7.564;2022-12-13T01:51:15;17.27;;;11.18;;
46222;SDS011;31943;51.410;7.564;2022-12-13T01:53:45;18.63;;;11.63;;
46222;SDS011;31943;51.410;7.564;2022-12-13T01:56:15;17.70;;;10.55;;
46222;SDS011;31943;51.410;7.564;2022-12-13T01:58:45;20.33;;;12.52;;
46222;SDS011;31943;51.410;7.564;2022-12-13T02:01:12;18.13;;;11.05;;
46222;SDS011;31943;51.410;7.564;2022-12-13T02:03:38;19.45;;;11.77;;
46222;SDS011;31943;51.410;7.564;2022-12-13T02:06:05;18.85;;;11.05;;
46222;SDS011;31943;51.410;7.564;2022-12-13T02:08:37;22.00;;;12.25;;
46222;SDS011;31943;51.410;7.564;2022-12-13T02:11:06;19.33;;;11.65;;
46222;SDS011;31943;51.410;7.564;2022-12-13T02:13:34;18.27;;;11.32;;
46222;SDS011;31943;51.410;7.564;2022-12-13T02:16:00;20.05;;;11.88;;
46222;SDS011;31943;51.410;7.564;2022-12-13T02:18:38;20.25;;;12.93;;
46222;SDS011;31943;51.410;7.564;2022-12-13T02:21:28;21.98;;;12.93;;
46222;SDS011;31943;51.410;7.564;2022-12-13T02:24:10;16.05;;;11.82;;
46222;SDS011;31943;51.410;7.564;2022-12-13T02:26:53;22.42;;;13.30;;
46222;SDS011;31943;51.410;7.564;2022-12-13T02:32:45;19.95;;;11.98;;
46222;SDS011;31943;51.410;7.564;2022-12-13T02:35:20;18.90;;;11.95;;
46222;SDS011;31943;51.410;7.564;2022-12-13T02:37:57;20.45;;;11.80;;
46222;SDS011;31943;51.410;7.564;2022-12-13T02:40:30;24.17;;;12.43;;
46222;SDS011;31943;51.410;7.564;2022-12-13T02:43:00;23.38;;;12.20;;
46222;SDS011;31943;51.410;7.564;2022-12-13T02:45:32;19.80;;;12.85;;
46222;SDS011;31943;51.410;7.564;2022-12-13T02:48:06;19.23;;;11.55;;
46222;SDS011;31943;51.410;7.564;2022-12-13T02:50:34;17.70;;;11.27;;
46222;SDS011;31943;51.410;7.564;2022-12-13T02:53:00;18.60;;;12.05;;
46222;SDS011;31943;51.410;7.564;2022-12-13T02:55:27;19.83;;;12.25;;
46222;SDS011;31943;51.410;7.564;2022-12-13T02:57:53;18.05;;;11.70;;
46222;SDS011;31943;51.410;7.564;2022-12-13T03:00:20;18.55;;;11.85;;
46222;SDS011;31943;51.410;7.564;2022-12-13T03:02:51;21.92;;;12.32;;
46222;SDS011;31943;51.410;7.564;2022-12-13T03:05:34;18.02;;;11.50;;
46222;SDS011;31943;51.410;7.564;2022-12-13T03:08:13;21.00;;;11.93;;
46222;SDS011;31943;51.410;7.564;2022-12-13T03:10:47;19.70;;;12.27;;
46222;SDS011;31943;51.410;7.564;2022-12-13T03:13:22;20.27;;;11.82;;
46222;SDS011;31943;51.410;7.564;2022-12-13T03:15:54;22.35;;;11.93;;
46222;SDS011;31943;51.410;7.564;2022-12-13T03:18:23;20.88;;;11.75;;
46222;SDS011;31943;51.410;7.564;2022-12-13T03:20:52;21.52;;;10.93;;
46222;SDS011;31943;51.410;7.564;2022-12-13T03:23:20;19.35;;;12.10;;
46222;SDS011;31943;51.410;7.564;2022-12-13T03:25:48;18.20;;;10.93;;
46222;SDS011;31943;51.410;7.564;2022-12-13T03:28:16;18.67;;;11.25;;
46222;SDS011;31943;51.410;7.564;2022-12-13T03:30:41;21.17;;;11.70;;
46222;SDS011;31943;51.410;7.564;2022-12-13T03:33:07;18.10;;;11.45;;
46222;SDS011;31943;51.410;7.564;2022-12-13T03:35:33;20.38;;;10.95;;
46222;SDS011;31943;51.410;7.564;2022-12-13T03:38:00;17.02;;;11.23;;
46222;SDS011;31943;51.410;7.564;2022-12-13T03:40:26;22.45;;;12.73;;
46222;SDS011;31943;51.410;7.564;2022-12-13T03:42:54;19.65;;;10.30;;
46222;SDS011;31943;51.410;7.564;2022-12-13T03:45:20;19.42;;;11.48;;
46222;SDS011;31943;51.410;7.564;2022-12-13T03:47:47;19.15;;;11.10;;
46222;SDS011;31943;51.410;7.564;2022-12-13T03:50:12;19.83;;;10.73;;
46222;SDS011;31943;51.410;7.564;2022-12-13T03:52:38;18.42;;;11.10;;
46222;SDS011;31943;51.410;7.564;2022-12-13T03:55:05;15.18;;;10.60;;
46222;SDS011;31943;51.410;7.564;2022-12-13T03:57:31;18.73;;;10.73;;
46222;SDS011;31943;51.410;7.564;2022-12-13T03:59:57;19.85;;;11.80;;
46222;SDS011;31943;51.410;7.564;2022-12-13T04:02:23;19.60;;;11.13;;
46222;SDS011;31943;51.410;7.564;2022-12-13T04:04:48;17.30;;;10.30;;
46222;SDS011;31943;51.410;7.564;2022-12-13T04:07:14;17.05;;;10.65;;
46222;SDS011;31943;51.410;7.564;2022-12-13T04:09:39;19.63;;;11.40;;
46222;SDS011;31943;51.410;7.564;2022-12-13T04:12:07;15.88;;;10.23;;
46222;SDS011;31943;51.410;7.564;2022-12-13T04:14:34;17.80;;;10.10;;
46222;SDS011;31943;51.410;7.564;2022-12-13T04:17:00;19.80;;;10.60;;
46222;SDS011;31943;51.410;7.564;2022-12-13T04:19:26;20.98;;;11.77;;
46222;SDS011;31943;51.410;7.564;2022-12-13T04:21:52;16.83;;;10.68;;
46222;SDS011;31943;51.410;7.564;2022-12-13T04:24:17;19.73;;;10.65;;
46222;SDS011;31943;51.410;7.564;2022-12-13T04:26:43;18.80;;;11.38;;
46222;SDS011;31943;51.410;7.564;2022-12-13T04:29:10;18.50;;;11.43;;
46222;SDS011;31943;51.410;7.564;2022-12-13T04:31:36;20.00;;;11.18;;
46222;SDS011;31943;51.410;7.564;2022-12-13T04:34:01;20.95;;;11.90;;
46222;SDS011;31943;51.410;7.564;2022-12-13T04:36:27;19.77;;;11.18;;
46222;SDS011;31943;51.410;7.564;2022-12-13T04:38:53;18.30;;;11.30;;
46222;SDS011;31943;51.410;7.564;2022-12-13T04:41:18;17.50;;;10.77;;
46222;SDS011;31943;51.410;7.564;2022-12-13T04:43:49;20.05;;;11.13;;
46222;SDS011;31943;51.410;7.564;2022-12-13T04:46:17;19.73;;;12.02;;
46222;SDS011;31943;51.410;7.564;2022-12-13T04:48:43;19.67;;;11.15;;
46222;SDS011;31943;51.410;7.564;2022-12-13T04:51:09;17.23;;;11.13;;
46222;SDS011;31943;51.410;7.564;2022-12-13T04:53:34;21.48;;;11.05;;
46222;SDS011;31943;51.410;7.564;2022-12-13T04:56:01;16.65;;;11.05;;
46222;SDS011;31943;51.410;7.564;2022-12-13T04:58:27;20.42;;;12.45;;
46222;SDS011;31943;51.410;7.564;2022-12-13T05:00:53;17.38;;;11.00;;
46222;SDS011;31943;51.410;7.564;2022-12-13T05:03:20;20.45;;;12.48;;
46222;SDS011;31943;51.410;7.564;2022-12-13T05:05:46;22.65;;;11.93;;
46222;SDS011;31943;51.410;7.564;2022-12-13T05:08:12;20.10;;;11.68;;
46222;SDS011;31943;51.410;7.564;2022-12-13T05:10:38;18.50;;;11.40;;
46222;SDS011;31943;51.410;7.564;2022-12-13T05:13:03;21.38;;;11.57;;
46222;SDS011;31943;51.410;7.564;2022-12-13T05:15:29;25.45;;;13.35;;
46222;SDS011;31943;51.410;7.564;2022-12-13T05:17:54;29.15;;;16.27;;
46222;SDS011;31943;51.410;7.564;2022-12-13T05:20:21;27.05;;;15.55;;
46222;SDS011;31943;51.410;7.564;2022-12-13T05:22:47;26.75;;;14.98;;
46222;SDS011;31943;51.410;7.564;2022-12-13T05:25:12;25.10;;;13.30;;
46222;SDS011;31943;51.410;7.564;2022-12-13T05:27:38;25.73;;;14.15;;
46222;SDS011;31943;51.410;7.564;2022-12-13T05:30:04;24.50;;;13.20;;
46222;SDS011;31943;51.410;7.564;2022-12-13T05:32:31;26.20;;;13.65;;
46222;SDS011;31943;51.410;7.564;2022-12-13T05:34:57;23.65;;;12.63;;
46222;SDS011;31943;51.410;7.564;2022-12-13T05:37:24;22.20;;;12.20;;
46222;SDS011;31943;51.410;7.564;2022-12-13T05:39:50;21.23;;;12.20;;
46222;SDS011;31943;51.410;7.564;2022-12-13T05:42:15;20.95;;;11.52;;
46222;SDS011;31943;51.410;7.564;2022-12-13T05:44:41;22.38;;;12.23;;
46222;SDS011;31943;51.410;7.564;2022-12-13T05:47:06;21.10;;;12.57;;
46222;SDS011;31943;51.410;7.564;2022-12-13T05:49:32;20.65;;;11.93;;
46222;SDS011;31943;51.410;7.564;2022-12-13T05:51:57;18.27;;;11.43;;
46222;SDS011;31943;51.410;7.564;2022-12-13T05:54:25;20.88;;;12.05;;
46222;SDS011;31943;51.410;7.564;2022-12-13T05:56:50;22.58;;;12.25;;
46222;SDS011;31943;51.410;7.564;2022-12-13T05:59:16;18.83;;;11.90;;
46222;SDS011;31943;51.410;7.564;2022-12-13T06:01:42;20.05;;;12.40;;
46222;SDS011;31943;51.410;7.564;2022-12-13T06:04:07;17.92;;;11.75;;
46222;SDS011;31943;51.410;7.564;2022-12-13T06:06:33;19.33;;;11.32;;
46222;SDS011;31943;51.410;7.564;2022-12-13T06:08:58;19.08;;;11.52;;
46222;SDS011;31943;51.410;7.564;2022-12-13T06:11:26;20.50;;;10.88;;
46222;SDS011;31943;51.410;7.564;2022-12-13T06:13:51;20.15;;;12.80;;
46222;SDS011;31943;51.410;7.564;2022-12-13T06:16:17;19.13;;;12.25;;
46222;SDS011;31943;51.410;7.564;2022-12-13T06:18:42;20.38;;;11.75;;
46222;SDS011;31943;51.410;7.564;2022-12-13T06:21:09;20.48;;;11.32;;
46222;SDS011;31943;51.410;7.564;2022-12-13T06:23:36;19.30;;;11.45;;
46222;SDS011;31943;51.410;7.564;2022-12-13T06:26:02;18.25;;;10.95;;
46222;SDS011;31943;51.410;7.564;2022-12-13T06:28:30;23.70;;;12.68;;
46222;SDS011;31943;51.410;7.564;2022-12-13T06:30:57;19.08;;;11.70;;
46222;SDS011;31943;51.410;7.564;2022-12-13T06:33:23;18.83;;;12.05;;
46222;SDS011;31943;51.410;7.564;2022-12-13T06:35:49;20.92;;;12.20;;
46222;SDS011;31943;51.410;7.564;2022-12-13T06:38:15;20.35;;;12.15;;
46222;SDS011;31943;51.410;7.564;2022-12-13T06:40:40;19.52;;;11.50;;
46222;SDS011;31943;51.410;7.564;2022-12-13T06:43:06;31.17;;;12.35;;
46222;SDS011;31943;51.410;7.564;2022-12-13T06:45:33;21.45;;;12.85;;
46222;SDS011;31943;51.410;7.564;2022-12-13T06:47:58;19.02;;;11.75;;
46222;SDS011;31943;51.410;7.564;2022-12-13T06:50:24;20.23;;;11.43;;
46222;SDS011;31943;51.410;7.564;2022-12-13T06:52:49;21.73;;;13.02;;
46222;SDS011;31943;51.410;7.564;2022-12-13T06:55:15;20.27;;;12.65;;
46222;SDS011;31943;51.410;7.564;2022-12-13T06:57:40;19.10;;;10.95;;
46222;SDS011;31943;51.410;7.564;2022-12-13T07:00:06;19.45;;;11.68;;
46222;SDS011;31943;51.410;7.564;2022-12-13T07:02:34;18.90;;;11.82;;
46222;SDS011;31943;51.410;7.564;2022-12-13T07:05:00;19.95;;;12.07;;
46222;SDS011;31943;51.410;7.564;2022-12-13T07:07:25;19.60;;;11.82;;
46222;SDS011;31943;51.410;7.564;2022-12-13T07:09:51;19.63;;;11.23;;
46222;SDS011;31943;51.410;7.564;2022-12-13T07:12:17;19.58;;;11.65;;
46222;SDS011;31943;51.410;7.564;2022-12-13T07:14:42;18.67;;;11.43;;
46222;SDS011;31943;51.410;7.564;2022-12-13T07:17:08;21.05;;;11.45;;
46222;SDS011;31943;51.410;7.564;2022-12-13T07:19:35;20.35;;;11.35;;
46222;SDS011;31943;51.410;7.564;2022-12-13T07:22:01;23.00;;;12.40;;
46222;SDS011;31943;51.410;7.564;2022-12-13T07:24:27;22.63;;;12.93;;
46222;SDS011;31943;51.410;7.564;2022-12-13T07:26:52;21.17;;;12.85;;
46222;SDS011;31943;51.410;7.564;2022-12-13T07:29:18;23.75;;;13.05;;
46222;SDS011;31943;51.410;7.564;2022-12-13T07:31:43;21.77;;;12.75;;
46222;SDS011;31943;51.410;7.564;2022-12-13T07:34:09;19.05;;;12.02;;
46222;SDS011;31943;51.410;7.564;2022-12-13T07:36:36;21.92;;;12.10;;
46222;SDS011;31943;51.410;7.564;2022-12-13T07:39:02;23.60;;;12.60;;
46222;SDS011;31943;51.410;7.564;2022-12-13T07:41:27;19.25;;;12.10;;
46222;SDS011;31943;51.410;7.564;2022-12-13T07:43:53;21.23;;;12.00;;
46222;SDS011;31943;51.410;7.564;2022-12-13T07:46:19;21.10;;;13.15;;
46222;SDS011;31943;51.410;7.564;2022-12-13T07:48:45;19.73;;;11.75;;
46222;SDS011;31943;51.410;7.564;2022-12-13T07:51:10;22.52;;;13.40;;
46222;SDS011;31943;51.410;7.564;2022-12-13T07:53:37;20.45;;;12.30;;
46222;SDS011;31943;51.410;7.564;2022-12-13T07:56:04;20.35;;;12.80;;
46222;SDS011;31943;51.410;7.564;2022-12-13T07:58:31;23.52;;;12.73;;
46222;SDS011;31943;51.410;7.564;2022-12-13T08:00:57;21.08;;;12.50;;
46222;SDS011;31943;51.410;7.564;2022-12-13T08:03:24;23.67;;;12.93;;
46222;SDS011;31943;51.410;7.564;2022-12-13T08:05:56;20.88;;;12.90;;
46222;SDS011;31943;51.410;7.564;2022-12-13T08:08:22;22.30;;;14.18;;
46222;SDS011;31943;51.410;7.564;2022-12-13T08:10:50;21.20;;;13.35;;
46222;SDS011;31943;51.410;7.564;2022-12-13T08:13:15;20.90;;;13.02;;
46222;SDS011;31943;51.410;7.564;2022-12-13T08:15:41;24.20;;;13.75;;
46222;SDS011;31943;51.410;7.564;2022-12-13T08:18:06;25.45;;;16.10;;
46222;SDS011;31943;51.410;7.564;2022-12-13T08:20:32;40.78;;;23.75;;
46222;SDS011;31943;51.410;7.564;2022-12-13T08:22:58;23.08;;;15.02;;
46222;SDS011;31943;51.410;7.564;2022-12-13T08:25:24;24.83;;;15.23;;
46222;SDS011;31943;51.410;7.564;2022-12-13T08:27:52;27.02;;;16.67;;
46222;SDS011;31943;51.410;7.564;2022-12-13T08:30:19;22.65;;;14.20;;
46222;SDS011;31943;51.410;7.564;2022-12-13T08:32:44;24.80;;;14.95;;
46222;SDS011;31943;51.410;7.564;2022-12-13T08:35:10;26.58;;;15.32;;
46222;SDS011;31943;51.410;7.564;2022-12-13T08:37:36;24.38;;;13.77;;
46222;SDS011;31943;51.410;7.564;2022-12-13T08:40:02;22.90;;;13.40;;
46222;SDS011;31943;51.410;7.564;2022-12-13T08:42:28;26.83;;;14.95;;
46222;SDS011;31943;51.410;7.564;2022-12-13T08:44:55;22.25;;;13.70;;
46222;SDS011;31943;51.410;7.564;2022-12-13T08:47:23;21.98;;;14.52;;
46222;SDS011;31943;51.410;7.564;2022-12-13T08:49:50;24.27;;;13.70;;
46222;SDS011;31943;51.410;7.564;2022-12-13T08:52:17;24.30;;;14.27;;
46222;SDS011;31943;51.410;7.564;2022-12-13T08:54:45;28.95;;;16.65;;
46222;SDS011;31943;51.410;7.564;2022-12-13T08:57:14;29.67;;;17.45;;
46222;SDS011;31943;51.410;7.564;2022-12-13T08:59:40;32.03;;;17.15;;
46222;SDS011;31943;51.410;7.564;2022-12-13T09:02:08;28.80;;;17.35;;
46222;SDS011;31943;51.410;7.564;2022-12-13T09:04:36;28.17;;;16.48;;
46222;SDS011;31943;51.410;7.564;2022-12-13T09:07:02;26.70;;;16.02;;
46222;SDS011;31943;51.410;7.564;2022-12-13T09:09:28;27.25;;;15.85;;
46222;SDS011;31943;51.410;7.564;2022-12-13T09:11:54;27.90;;;17.33;;
46222;SDS011;31943;51.410;7.564;2022-12-13T09:14:19;27.92;;;16.92;;
46222;SDS011;31943;51.410;7.564;2022-12-13T09:16:45;29.15;;;16.98;;
46222;SDS011;31943;51.410;7.564;2022-12-13T09:19:12;26.65;;;16.45;;
46222;SDS011;31943;51.410;7.564;2022-12-13T09:21:38;27.00;;;16.08;;
46222;SDS011;31943;51.410;7.564;2022-12-13T09:24:03;28.65;;;16.65;;
46222;SDS011;31943;51.410;7.564;2022-12-13T09:26:29;27.85;;;15.55;;
46222;SDS011;31943;51.410;7.564;2022-12-13T09:28:54;25.52;;;15.45;;
46222;SDS011;31943;51.410;7.564;2022-12-13T09:31:20;27.38;;;16.20;;
46222;SDS011;31943;51.410;7.564;2022-12-13T09:33:46;27.05;;;16.80;;
46222;SDS011;31943;51.410;7.564;2022-12-13T09:36:14;27.55;;;15.40;;
46222;SDS011;31943;51.410;7.564;2022-12-13T09:38:41;25.65;;;16.77;;
46222;SDS011;31943;51.410;7.564;2022-12-13T09:41:09;25.00;;;16.30;;
46222;SDS011;31943;51.410;7.564;2022-12-13T09:43:41;26.05;;;15.23;;
46222;SDS011;31943;51.410;7.564;2022-12-13T09:46:10;26.42;;;16.40;;
46222;SDS011;31943;51.410;7.564;2022-12-13T09:48:44;25.90;;;16.95;;
46222;SDS011;31943;51.410;7.564;2022-12-13T09:51:09;25.27;;;16.02;;
46222;SDS011;31943;51.410;7.564;2022-12-13T09:53:37;26.00;;;16.25;;
46222;SDS011;31943;51.410;7.564;2022-12-13T09:56:04;26.27;;;15.65;;
46222;SDS011;31943;51.410;7.564;2022-12-13T09:58:30;27.38;;;16.15;;
46222;SDS011;31943;51.410;7.564;2022-12-13T10:00:56;28.90;;;16.63;;
46222;SDS011;31943;51.410;7.564;2022-12-13T10:03:23;27.02;;;15.98;;
46222;SDS011;31943;51.410;7.564;2022-12-13T10:05:52;26.55;;;15.25;;
46222;SDS011;31943;51.410;7.564;2022-12-13T10:08:22;24.25;;;15.23;;
46222;SDS011;31943;51.410;7.564;2022-12-13T10:10:53;26.40;;;15.75;;
46222;SDS011;31943;51.410;7.564;2022-12-13T10:13:19;25.38;;;15.55;;
46222;SDS011;31943;51.410;7.564;2022-12-13T10:15:47;27.08;;;15.65;;
46222;SDS011;31943;51.410;7.564;2022-12-13T10:18:19;26.98;;;15.77;;
46222;SDS011;31943;51.410;7.564;2022-12-13T10:20:50;28.08;;;16.02;;
46222;SDS011;31943;51.410;7.564;2022-12-13T10:23:17;28.90;;;17.98;;
46222;SDS011;31943;51.410;7.564;2022-12-13T10:25:43;32.60;;;20.10;;
46222;SDS011;31943;51.410;7.564;2022-12-13T10:28:14;28.55;;;17.25;;
46222;SDS011;31943;51.410;7.564;2022-12-13T10:30:41;27.30;;;16.23;;
46222;SDS011;31943;51.410;7.564;2022-12-13T10:33:17;25.50;;;16.02;;
46222;SDS011;31943;51.410;7.564;2022-12-13T10:35:46;24.73;;;15.60;;
46222;SDS011;31943;51.410;7.564;2022-12-13T10:38:26;29.20;;;16.45;;
46222;SDS011;31943;51.410;7.564;2022-12-13T10:40:54;25.35;;;16.02;;
46222;SDS011;31943;51.410;7.564;2022-12-13T10:43:22;26.65;;;16.23;;
46222;SDS011;31943;51.410;7.564;2022-12-13T10:45:55;25.90;;;16.60;;
46222;SDS011;31943;51.410;7.564;2022-12-13T10:48:23;26.35;;;16.50;;
46222;SDS011;31943;51.410;7.564;2022-12-13T10:50:57;27.52;;;16.50;;
46222;SDS011;31943;51.410;7.564;2022-12-13T10:53:27;24.38;;;15.90;;
46222;SDS011;31943;51.410;7.564;2022-12-13T10:55:56;27.35;;;17.05;;
46222;SDS011;31943;51.410;7.564;2022-12-13T10:58:32;27.83;;;16.20;;
46222;SDS011;31943;51.410;7.564;2022-12-13T11:01:06;26.95;;;17.10;;
46222;SDS011;31943;51.410;7.564;2022-12-13T11:03:45;28.00;;;17.30;;
46222;SDS011;31943;51.410;7.564;2022-12-13T11:06:21;28.23;;;17.42;;
46222;SDS011;31943;51.410;7.564;2022-12-13T11:08:46;28.95;;;17.25;;
46222;SDS011;31943;51.410;7.564;2022-12-13T11:11:12;29.23;;;16.85;;
46222;SDS011;31943;51.410;7.564;2022-12-13T11:13:44;30.00;;;17.35;;
46222;SDS011;31943;51.410;7.564;2022-12-13T11:16:16;27.33;;;16.92;;
46222;SDS011;31943;51.410;7.564;2022-12-13T11:18:49;35.35;;;19.50;;
46222;SDS011;31943;51.410;7.564;2022-12-13T11:21:21;33.63;;;19.70;;
46222;SDS011;31943;51.410;7.564;2022-12-13T11:23:49;30.47;;;17.87;;
46222;SDS011;31943;51.410;7.564;2022-12-13T11:26:15;29.58;;;18.40;;
46222;SDS011;31943;51.410;7.564;2022-12-13T11:28:57;30.33;;;17.88;;
46222;SDS011;31943;51.410;7.564;2022-12-13T11:31:34;30.80;;;17.92;;
46222;SDS011;31943;51.410;7.564;2022-12-13T11:34:09;26.10;;;16.42;;
46222;SDS011;31943;51.410;7.564;2022-12-13T11:36:53;25.17;;;16.83;;
46222;SDS011;31943;51.410;7.564;2022-12-13T11:39:26;28.33;;;17.65;;
46222;SDS011;31943;51.410;7.564;2022-12-13T11:41:56;31.63;;;18.75;;
46222;SDS011;31943;51.410;7.564;2022-12-13T11:44:32;33.70;;;18.05;;
46222;SDS011;31943;51.410;7.564;2022-12-13T11:47:06;31.45;;;17.83;;
46222;SDS011;31943;51.410;7.564;2022-12-13T11:49:39;30.13;;;17.52;;
46222;SDS011;31943;51.410;7.564;2022-12-13T11:52:10;29.60;;;18.17;;
46222;SDS011;31943;51.410;7.564;2022-12-13T11:54:42;26.60;;;16.15;;
46222;SDS011;31943;51.410;7.564;2022-12-13T11:57:16;28.73;;;16.85;;
46222;SDS011;31943;51.410;7.564;2022-12-13T11:59:56;28.52;;;18.65;;
46222;SDS011;31943;51.410;7.564;2022-12-13T12:02:28;28.65;;;18.42;;
46222;SDS011;31943;51.410;7.564;2022-12-13T12:04:57;30.02;;;19.35;;
46222;SDS011;31943;51.410;7.564;2022-12-13T12:07:26;32.67;;;18.67;;
46222;SDS011;31943;51.410;7.564;2022-12-13T12:10:00;33.45;;;18.52;;
46222;SDS011;31943;51.410;7.564;2022-12-13T12:12:34;27.75;;;17.13;;
46222;SDS011;31943;51.410;7.564;2022-12-13T12:15:06;23.63;;;15.38;;
46222;SDS011;31943;51.410;7.564;2022-12-13T12:17:36;19.83;;;12.82;;
46222;SDS011;31943;51.410;7.564;2022-12-13T12:20:02;15.10;;;10.10;;
46222;SDS011;31943;51.410;7.564;2022-12-13T12:22:33;13.95;;;8.25;;
46222;SDS011;31943;51.410;7.564;2022-12-13T12:25:18;13.60;;;8.70;;
46222;SDS011;31943;51.410;7.564;2022-12-13T12:27:52;14.63;;;8.93;;
46222;SDS011;31943;51.410;7.564;2022-12-13T12:30:30;12.00;;;8.10;;
46222;SDS011;31943;51.410;7.564;2022-12-13T12:33:05;15.45;;;9.02;;
46222;SDS011;31943;51.410;7.564;2022-12-13T12:35:50;14.30;;;8.52;;
46222;SDS011;31943;51.410;7.564;2022-12-13T12:41:23;13.75;;;7.82;;
46222;SDS011;31943;51.410;7.564;2022-12-13T12:43:55;14.77;;;8.23;;
46222;SDS011;31943;51.410;7.564;2022-12-13T12:46:37;13.70;;;8.60;;
46222;SDS011;31943;51.410;7.564;2022-12-13T12:52:10;14.63;;;7.47;;
46222;SDS011;31943;51.410;7.564;2022-12-13T12:54:46;10.40;;;7.13;;
46222;SDS011;31943;51.410;7.564;2022-12-13T12:57:21;11.48;;;8.07;;
46222;SDS011;31943;51.410;7.564;2022-12-13T12:59:59;12.32;;;7.97;;
46222;SDS011;31943;51.410;7.564;2022-12-13T13:02:32;11.45;;;6.82;;
46222;SDS011;31943;51.410;7.564;2022-12-13T13:05:06;14.25;;;7.32;;
46222;SDS011;31943;51.410;7.564;2022-12-13T13:07:41;16.05;;;7.63;;
46222;SDS011;31943;51.410;7.564;2022-12-13T13:10:12;13.50;;;8.20;;
46222;SDS011;31943;51.410;7.564;2022-12-13T13:12:38;12.52;;;7.40;;
46222;SDS011;31943;51.410;7.564;2022-12-13T13:18:40;16.02;;;8.70;;
46222;SDS011;31943;51.410;7.564;2022-12-13T13:24:15;16.83;;;10.82;;
46222;SDS011;31943;51.410;7.564;2022-12-13T13:26:44;22.05;;;13.15;;
46222;SDS011;31943;51.410;7.564;2022-12-13T13:32:03;22.60;;;13.98;;
46222;SDS011;31943;51.410;7.564;2022-12-13T13:34:51;20.27;;;13.73;;
46222;SDS011;31943;51.410;7.564;2022-12-13T13:37:28;24.88;;;14.63;;
46222;SDS011;31943;51.410;7.564;2022-12-13T13:40:25;24.85;;;16.65;;
46222;SDS011;31943;51.410;7.564;2022-12-13T13:43:00;25.00;;;16.65;;
46222;SDS011;31943;51.410;7.564;2022-12-13T13:45:36;27.88;;;16.88;;
46222;SDS011;31943;51.410;7.564;2022-12-13T13:48:21;23.73;;;14.90;;
46222;SDS011;31943;51.410;7.564;2022-12-13T13:57:24;21.63;;;13.13;;
46222;SDS011;31943;51.410;7.564;2022-12-13T14:00:19;13.65;;;10.20;;
46222;SDS011;31943;51.410;7.564;2022-12-13T14:02:58;16.00;;;9.73;;
46222;SDS011;31943;51.410;7.564;2022-12-13T14:06:00;11.88;;;8.55;;
46222;SDS011;31943;51.410;7.564;2022-12-13T14:08:44;16.17;;;9.02;;
46222;SDS011;31943;51.410;7.564;2022-12-13T14:18:05;13.50;;;7.93;;
46222;SDS011;31943;51.410;7.564;2022-12-13T14:21:06;21.38;;;11.20;;
46222;SDS011;31943;51.410;7.564;2022-12-13T14:23:41;17.17;;;10.27;;
46222;SDS011;31943;51.410;7.564;2022-12-13T14:26:22;14.68;;;9.50;;
46222;SDS011;31943;51.410;7.564;2022-12-13T14:28:57;14.63;;;9.00;;
46222;SDS011;31943;51.410;7.564;2022-12-13T14:31:29;15.63;;;9.50;;
46222;SDS011;31943;51.410;7.564;2022-12-13T14:34:00;15.00;;;9.88;;
46222;SDS011;31943;51.410;7.564;2022-12-13T14:36:27;15.93;;;10.20;;
46222;SDS011;31943;51.410;7.564;2022-12-13T14:39:00;15.25;;;9.65;;
46222;SDS011;31943;51.410;7.564;2022-12-13T14:41:27;18.42;;;11.40;;
46222;SDS011;31943;51.410;7.564;2022-12-13T14:43:55;17.27;;;11.15;;
46222;SDS011;31943;51.410;7.564;2022-12-13T14:46:46;15.07;;;9.65;;
46222;SDS011;31943;51.410;7.564;2022-12-13T14:49:13;18.38;;;10.43;;
46222;SDS011;31943;51.410;7.564;2022-12-13T14:51:39;16.90;;;10.07;;
46222;SDS011;31943;51.410;7.564;2022-12-13T14:54:05;13.98;;;9.13;;
46222;SDS011;31943;51.410;7.564;2022-12-13T14:56:52;17.85;;;10.38;;
46222;SDS011;31943;51.410;7.564;2022-12-13T14:59:18;16.85;;;10.90;;
46222;SDS011;31943;51.410;7.564;2022-12-13T15:01:45;17.23;;;10.55;;
46222;SDS011;31943;51.410;7.564;2022-12-13T15:04:21;14.30;;;9.80;;
46222;SDS011;31943;51.410;7.564;2022-12-13T15:06:53;15.93;;;9.98;;